Begumpet Airport


Codes: VOHY/BPM
Name: Begumpet Airport
City: Hyderabad
Country: India
Elevation: 1742 ft.
Wikipedia:

Photos at Begumpet Airport


   Photos courtesy of SpottingLog. You can add your own sightings and photos by signing up for a free trial today.



No photos found.

Weather at Begumpet Airport


Time (UTC)DescriptionTempratureWindCloud coverageVisibilityPressureHumidity
25-Jun-2024 15:00Light Rain30°C16 mph, SW92%10000m1000hPa59%
25-Jun-2024 18:00Light Rain28°C16 mph, W94%10000m1002hPa65%
25-Jun-2024 21:00Light Rain25°C16 mph, W94%10000m1001hPa73%
26-Jun-2024 00:00Light Rain25°C13 mph, W92%10000m1002hPa75%
26-Jun-2024 03:00Overcast Clouds27°C18 mph, W100%10000m1003hPa67%
26-Jun-2024 06:00Light Rain29°C16 mph, W100%10000m1003hPa59%
26-Jun-2024 09:00Overcast Clouds31°C16 mph, W100%10000m1000hPa52%
26-Jun-2024 12:00Light Rain30°C11 mph, W100%10000m1001hPa55%
26-Jun-2024 15:00Light Rain28°C13 mph, W100%10000m1003hPa62%
26-Jun-2024 18:00Overcast Clouds28°C13 mph, W100%10000m1003hPa66%
26-Jun-2024 21:00Light Rain26°C16 mph, W100%10000m1002hPa68%
27-Jun-2024 00:00Light Rain25°C11 mph, W100%10000m1003hPa80%
27-Jun-2024 03:00Light Rain25°C11 mph, W100%10000m1005hPa85%
27-Jun-2024 06:00Light Rain26°C13 mph, W100%10000m1005hPa77%
27-Jun-2024 09:00Light Rain28°C11 mph, W100%10000m1002hPa67%
27-Jun-2024 12:00Overcast Clouds28°C11 mph, W100%10000m1002hPa68%
27-Jun-2024 15:00Overcast Clouds26°C13 mph, W100%10000m1004hPa80%
27-Jun-2024 18:00Overcast Clouds25°C16 mph, W100%10000m1004hPa84%
27-Jun-2024 21:00Light Rain24°C16 mph, W100%10000m1003hPa86%
28-Jun-2024 00:00Light Rain24°C13 mph, W100%6818m1003hPa87%
28-Jun-2024 03:00Light Rain25°C13 mph, W100%10000m1005hPa84%
28-Jun-2024 06:00Light Rain26°C16 mph, W100%10000m1004hPa75%
28-Jun-2024 09:00Light Rain28°C18 mph, W100%10000m1003hPa71%
28-Jun-2024 12:00Light Rain26°C16 mph, W100%10000m1003hPa76%
28-Jun-2024 15:00Light Rain26°C16 mph, W100%10000m1004hPa77%
28-Jun-2024 18:00Overcast Clouds25°C13 mph, W100%10000m1005hPa80%
28-Jun-2024 21:00Overcast Clouds24°C16 mph, W100%10000m1003hPa82%
29-Jun-2024 00:00Light Rain24°C16 mph, W100%10000m1004hPa81%
29-Jun-2024 03:00Overcast Clouds24°C16 mph, W100%10000m1006hPa78%
29-Jun-2024 06:00Overcast Clouds28°C18 mph, W100%10000m1005hPa62%
29-Jun-2024 09:00Overcast Clouds31°C18 mph, W100%10000m1003hPa48%
29-Jun-2024 12:00Overcast Clouds29°C18 mph, W100%10000m1004hPa57%
29-Jun-2024 15:00Overcast Clouds28°C16 mph, W100%10000m1006hPa62%
29-Jun-2024 18:00Overcast Clouds26°C18 mph, W100%10000m1006hPa72%
29-Jun-2024 21:00Overcast Clouds25°C16 mph, W100%10000m1005hPa76%
30-Jun-2024 00:00Overcast Clouds25°C16 mph, W100%10000m1005hPa78%
30-Jun-2024 03:00Overcast Clouds25°C16 mph, W100%10000m1007hPa76%
30-Jun-2024 06:00Overcast Clouds28°C16 mph, W100%10000m1006hPa62%
30-Jun-2024 09:00Overcast Clouds28°C16 mph, W100%10000m1005hPa62%
30-Jun-2024 12:00Overcast Clouds28°C13 mph, SW100%10000m1004hPa61%